Fort Wayne International Airport
KFWA : now visible

Airfield :











YOU CAN JOIN US ON...

 
LOGIN :

Register | Disclaimer

   EN    FR    IT 

 









Legend :    VFR   Marginal VFR   IFR   Intensive IFR   Very Intensive IFR
Visi :
Ceiling :
>= 8 km
>= 3000ft
5 to 8 km
1000 to 3000 ft
1500m to 5 km
500 to 1000 ft
800 to 1500m
200 to 500 ft
< 800m
< 200 ft
Symbols :   Thunderstorms  Fog  Heavy snow  Heavy precipitations  Wind > 20 kt






- Airport Elevation : 814 ft
- IATA code : FWA


KFWA - Fort Wayne International

CURRENT METAR :
  • 110354Z 18004KT 10SM SCT090 BKN110 12/10 A2942 RMK AO2 SLP959 T01170100 $

EXPIRED METARs :
  • 110254Z 21005KT 10SM FEW024 SCT070 OVC090 12/10 A2943 RMK AO2 RAB06E15 SLP964 P0000 60005 T01220100 50001 $
  • 110154Z 19007KT 10SM OVC065 13/11 A2944 RMK AO2 PK WND 20038/0107 WSHFT 0101 RAB05E32 SLP967 P0004 T01330106 $

TAF KFWA
Valid from the 11 at 04:00 until the 12 at 00:00 UTC


110359Z 1104/1124 21010KT P6SM BKN045
FM110900 18012KT P6SM OVC020
FM111600 23010KT 5SM SHRA OVC015
KZAU FIR / North America



MET'MAP, your aeronautical weather chart ! - Copyright ORBIFLY December 2007 - Disclaimer

ORBIFLY MET'MAP TEAM :

Programming & Development : Alexandra Zaïnal
Concept & original design : Baudouin d'Aumeries
Assistance for programming : Marc-Olivier Méhu
Technical & hardware support : Manuel Goepfert

Contact : metmap@orbifly.com




SOURCES & CREDITS :

   NOAA       Earth
Advisory